Terminal Aerodrome Forecast
Issued by NWS Chicago, IL

Home | Current Version | Previous Version | Graphics & Text | Print | Product List | Glossary On
Versions: 1 2 3 4 5 6 7 8 9 10 11 12 13 14 15 16 17 18 19 20 21 22 23 24 25 26 27 28 29 30 31 32 33 34 35 36 37 38 39 40
000
FTUS43 KLOT 181900 AAA
TAFRFD
TAF AMD
KRFD 181942Z 1820/1918 36007KT P6SM BKN025 OVC035
     FM182200 36008KT P6SM BKN040
     FM190000 36003KT P6SM FEW040
     FM190800 VRB03KT P6SM FEW200
     FM191600 23008KT P6SM FEW250=

USA.gov is the U.S. government's official web portal to all federal, state and local government web resources and services.